sensor_id;sensor_type;location;lat;lon;timestamp;temperature;humidity
6355;DHT22;3210;48.708;9.030;2023-03-14T00:02:17;9.00;23.50
6355;DHT22;3210;48.708;9.030;2023-03-14T00:04:43;9.00;84.90
6355;DHT22;3210;48.708;9.030;2023-03-14T00:07:11;9.00;25.80
6355;DHT22;3210;48.708;9.030;2023-03-14T00:09:38;9.00;41.80
6355;DHT22;3210;48.708;9.030;2023-03-14T00:12:05;9.10;39.90
6355;DHT22;3210;48.708;9.030;2023-03-14T00:14:34;9.00;39.40
6355;DHT22;3210;48.708;9.030;2023-03-14T00:17:00;9.00;56.40
6355;DHT22;3210;48.708;9.030;2023-03-14T00:19:27;8.90;94.50
6355;DHT22;3210;48.708;9.030;2023-03-14T00:21:54;9.00;38.50
6355;DHT22;3210;48.708;9.030;2023-03-14T00:24:21;8.90;53.50
6355;DHT22;3210;48.708;9.030;2023-03-14T00:26:47;9.00;31.60
6355;DHT22;3210;48.708;9.030;2023-03-14T00:29:14;9.00;10.60
6355;DHT22;3210;48.708;9.030;2023-03-14T00:31:42;8.90;1.40
6355;DHT22;3210;48.708;9.030;2023-03-14T00:34:09;8.90;8.80
6355;DHT22;3210;48.708;9.030;2023-03-14T00:36:36;9.00;15.20
6355;DHT22;3210;48.708;9.030;2023-03-14T00:39:02;8.80;25.60
6355;DHT22;3210;48.708;9.030;2023-03-14T00:41:29;9.00;38.90
6355;DHT22;3210;48.708;9.030;2023-03-14T00:43:56;9.00;1.00
6355;DHT22;3210;48.708;9.030;2023-03-14T00:46:22;9.00;1.00
6355;DHT22;3210;48.708;9.030;2023-03-14T00:48:51;8.90;1.00
6355;DHT22;3210;48.708;9.030;2023-03-14T00:51:17;9.00;1.00
6355;DHT22;3210;48.708;9.030;2023-03-14T00:53:44;8.90;1.00
6355;DHT22;3210;48.708;9.030;2023-03-14T00:56:12;8.90;1.00
6355;DHT22;3210;48.708;9.030;2023-03-14T00:58:39;8.90;1.00
6355;DHT22;3210;48.708;9.030;2023-03-14T01:01:08;8.90;3.60
6355;DHT22;3210;48.708;9.030;2023-03-14T01:03:35;8.90;7.10
6355;DHT22;3210;48.708;9.030;2023-03-14T01:06:09;9.00;1.00
6355;DHT22;3210;48.708;9.030;2023-03-14T01:08:36;9.00;1.00
6355;DHT22;3210;48.708;9.030;2023-03-14T01:11:06;9.00;1.00
6355;DHT22;3210;48.708;9.030;2023-03-14T01:13:33;9.00;1.00
6355;DHT22;3210;48.708;9.030;2023-03-14T01:16:02;9.10;1.00
6355;DHT22;3210;48.708;9.030;2023-03-14T01:18:29;9.00;1.00
6355;DHT22;3210;48.708;9.030;2023-03-14T01:20:56;9.00;1.00
6355;DHT22;3210;48.708;9.030;2023-03-14T01:23:24;9.00;1.00
6355;DHT22;3210;48.708;9.030;2023-03-14T01:25:51;9.10;1.00
6355;DHT22;3210;48.708;9.030;2023-03-14T01:28:18;9.00;1.00
6355;DHT22;3210;48.708;9.030;2023-03-14T01:30:44;9.00;1.00
6355;DHT22;3210;48.708;9.030;2023-03-14T01:33:11;9.00;1.00
6355;DHT22;3210;48.708;9.030;2023-03-14T01:35:40;9.00;1.00
6355;DHT22;3210;48.708;9.030;2023-03-14T01:38:07;9.00;1.00
6355;DHT22;3210;48.708;9.030;2023-03-14T01:40:41;9.00;1.00
6355;DHT22;3210;48.708;9.030;2023-03-14T01:43:14;9.00;1.00
6355;DHT22;3210;48.708;9.030;2023-03-14T01:46:12;9.10;1.00
6355;DHT22;3210;48.708;9.030;2023-03-14T01:48:43;9.00;1.00
6355;DHT22;3210;48.708;9.030;2023-03-14T01:51:14;8.90;1.00
6355;DHT22;3210;48.708;9.030;2023-03-14T01:53:43;8.90;99.90
6355;DHT22;3210;48.708;9.030;2023-03-14T01:56:13;8.90;99.90
6355;DHT22;3210;48.708;9.030;2023-03-14T01:58:41;8.90;99.90
6355;DHT22;3210;48.708;9.030;2023-03-14T02:01:10;8.90;99.90
6355;DHT22;3210;48.708;9.030;2023-03-14T02:03:44;8.90;99.90
6355;DHT22;3210;48.708;9.030;2023-03-14T02:06:11;8.90;1.00
6355;DHT22;3210;48.708;9.030;2023-03-14T02:08:40;8.90;1.00
6355;DHT22;3210;48.708;9.030;2023-03-14T02:11:07;8.90;1.00
6355;DHT22;3210;48.708;9.030;2023-03-14T02:13:35;8.90;1.00
6355;DHT22;3210;48.708;9.030;2023-03-14T02:16:02;8.90;1.00
6355;DHT22;3210;48.708;9.030;2023-03-14T02:18:28;8.80;1.00
6355;DHT22;3210;48.708;9.030;2023-03-14T02:21:00;8.90;1.00
6355;DHT22;3210;48.708;9.030;2023-03-14T02:23:35;9.00;1.00
6355;DHT22;3210;48.708;9.030;2023-03-14T02:26:06;8.80;1.00
6355;DHT22;3210;48.708;9.030;2023-03-14T02:28:36;8.80;1.00
6355;DHT22;3210;48.708;9.030;2023-03-14T02:31:03;8.90;1.00
6355;DHT22;3210;48.708;9.030;2023-03-14T02:33:30;8.80;1.00
6355;DHT22;3210;48.708;9.030;2023-03-14T02:35:59;8.80;1.00
6355;DHT22;3210;48.708;9.030;2023-03-14T02:38:31;8.80;1.00
6355;DHT22;3210;48.708;9.030;2023-03-14T02:41:00;8.80;1.00
6355;DHT22;3210;48.708;9.030;2023-03-14T02:43:26;8.80;1.00
6355;DHT22;3210;48.708;9.030;2023-03-14T02:45:55;8.80;1.00
6355;DHT22;3210;48.708;9.030;2023-03-14T02:48:25;8.70;1.00
6355;DHT22;3210;48.708;9.030;2023-03-14T02:50:54;8.80;99.90
6355;DHT22;3210;48.708;9.030;2023-03-14T02:53:24;8.80;1.00
6355;DHT22;3210;48.708;9.030;2023-03-14T02:55:51;8.80;99.90
6355;DHT22;3210;48.708;9.030;2023-03-14T02:58:19;8.70;99.90
6355;DHT22;3210;48.708;9.030;2023-03-14T03:00:46;8.70;99.90
6355;DHT22;3210;48.708;9.030;2023-03-14T03:03:14;8.70;99.90
6355;DHT22;3210;48.708;9.030;2023-03-14T03:05:41;8.70;99.90
6355;DHT22;3210;48.708;9.030;2023-03-14T03:08:09;8.60;99.90
6355;DHT22;3210;48.708;9.030;2023-03-14T03:10:36;8.60;99.90
6355;DHT22;3210;48.708;9.030;2023-03-14T03:13:02;8.60;99.90
6355;DHT22;3210;48.708;9.030;2023-03-14T03:15:29;8.60;99.90
6355;DHT22;3210;48.708;9.030;2023-03-14T03:17:56;8.70;99.90
6355;DHT22;3210;48.708;9.030;2023-03-14T03:20:24;8.50;99.90
6355;DHT22;3210;48.708;9.030;2023-03-14T03:22:51;8.50;99.90
6355;DHT22;3210;48.708;9.030;2023-03-14T03:25:18;8.50;99.90
6355;DHT22;3210;48.708;9.030;2023-03-14T03:27:45;8.50;99.90
6355;DHT22;3210;48.708;9.030;2023-03-14T03:30:12;8.50;99.90
6355;DHT22;3210;48.708;9.030;2023-03-14T03:32:39;8.40;99.90
6355;DHT22;3210;48.708;9.030;2023-03-14T03:35:07;8.40;99.90
6355;DHT22;3210;48.708;9.030;2023-03-14T03:37:35;8.40;99.90
6355;DHT22;3210;48.708;9.030;2023-03-14T03:40:03;8.40;99.90
6355;DHT22;3210;48.708;9.030;2023-03-14T03:42:31;8.30;99.90
6355;DHT22;3210;48.708;9.030;2023-03-14T03:44:58;8.30;99.90
6355;DHT22;3210;48.708;9.030;2023-03-14T03:47:25;8.30;99.90
6355;DHT22;3210;48.708;9.030;2023-03-14T03:49:52;8.30;99.90
6355;DHT22;3210;48.708;9.030;2023-03-14T03:52:19;8.30;99.90
6355;DHT22;3210;48.708;9.030;2023-03-14T03:54:47;8.20;99.90
6355;DHT22;3210;48.708;9.030;2023-03-14T03:57:14;8.20;99.90
6355;DHT22;3210;48.708;9.030;2023-03-14T03:59:40;8.20;99.90
6355;DHT22;3210;48.708;9.030;2023-03-14T04:02:07;8.10;99.90
6355;DHT22;3210;48.708;9.030;2023-03-14T04:04:34;8.10;99.90
6355;DHT22;3210;48.708;9.030;2023-03-14T04:07:01;8.20;99.90
6355;DHT22;3210;48.708;9.030;2023-03-14T04:09:27;8.20;99.90
6355;DHT22;3210;48.708;9.030;2023-03-14T04:11:56;8.10;99.90
6355;DHT22;3210;48.708;9.030;2023-03-14T04:14:23;8.10;99.90
6355;DHT22;3210;48.708;9.030;2023-03-14T04:16:50;8.20;99.90
6355;DHT22;3210;48.708;9.030;2023-03-14T04:19:16;8.10;99.90
6355;DHT22;3210;48.708;9.030;2023-03-14T04:21:43;8.10;99.90
6355;DHT22;3210;48.708;9.030;2023-03-14T04:24:12;8.10;99.90
6355;DHT22;3210;48.708;9.030;2023-03-14T04:26:39;8.10;99.90
6355;DHT22;3210;48.708;9.030;2023-03-14T04:29:07;8.10;99.90
6355;DHT22;3210;48.708;9.030;2023-03-14T04:31:34;8.20;99.90
6355;DHT22;3210;48.708;9.030;2023-03-14T04:34:01;8.20;99.90
6355;DHT22;3210;48.708;9.030;2023-03-14T04:36:28;8.20;99.90
6355;DHT22;3210;48.708;9.030;2023-03-14T04:38:54;8.10;99.90
6355;DHT22;3210;48.708;9.030;2023-03-14T04:41:21;8.10;99.90
6355;DHT22;3210;48.708;9.030;2023-03-14T04:43:48;8.10;99.90
6355;DHT22;3210;48.708;9.030;2023-03-14T04:46:16;8.10;99.90
6355;DHT22;3210;48.708;9.030;2023-03-14T04:48:43;8.20;99.90
6355;DHT22;3210;48.708;9.030;2023-03-14T04:51:09;8.10;99.90
6355;DHT22;3210;48.708;9.030;2023-03-14T04:53:36;8.10;99.90
6355;DHT22;3210;48.708;9.030;2023-03-14T04:56:04;8.10;99.90
6355;DHT22;3210;48.708;9.030;2023-03-14T04:58:30;8.10;99.90
6355;DHT22;3210;48.708;9.030;2023-03-14T05:01:02;8.20;99.90
6355;DHT22;3210;48.708;9.030;2023-03-14T05:03:30;8.10;99.90
6355;DHT22;3210;48.708;9.030;2023-03-14T05:05:57;8.10;99.90
6355;DHT22;3210;48.708;9.030;2023-03-14T05:08:24;8.10;99.90
6355;DHT22;3210;48.708;9.030;2023-03-14T05:10:55;8.00;99.90
6355;DHT22;3210;48.708;9.030;2023-03-14T05:13:22;8.00;99.90
6355;DHT22;3210;48.708;9.030;2023-03-14T05:15:49;8.10;99.90
6355;DHT22;3210;48.708;9.030;2023-03-14T05:18:16;8.10;99.90
6355;DHT22;3210;48.708;9.030;2023-03-14T05:20:44;8.10;99.90
6355;DHT22;3210;48.708;9.030;2023-03-14T05:23:11;8.00;99.90
6355;DHT22;3210;48.708;9.030;2023-03-14T05:25:38;8.00;99.90
6355;DHT22;3210;48.708;9.030;2023-03-14T05:28:04;8.00;99.90
6355;DHT22;3210;48.708;9.030;2023-03-14T05:30:31;8.00;99.90
6355;DHT22;3210;48.708;9.030;2023-03-14T05:32:59;8.20;99.90
6355;DHT22;3210;48.708;9.030;2023-03-14T05:35:25;8.20;99.90
6355;DHT22;3210;48.708;9.030;2023-03-14T05:37:54;8.10;99.90
6355;DHT22;3210;48.708;9.030;2023-03-14T05:40:20;8.20;99.90
6355;DHT22;3210;48.708;9.030;2023-03-14T05:42:47;8.20;99.90
6355;DHT22;3210;48.708;9.030;2023-03-14T05:45:14;8.10;99.90
6355;DHT22;3210;48.708;9.030;2023-03-14T05:47:41;8.10;99.90
6355;DHT22;3210;48.708;9.030;2023-03-14T05:50:08;8.10;99.90
6355;DHT22;3210;48.708;9.030;2023-03-14T05:52:35;8.10;99.90
6355;DHT22;3210;48.708;9.030;2023-03-14T05:55:05;8.10;99.90
6355;DHT22;3210;48.708;9.030;2023-03-14T05:57:31;8.00;99.90
6355;DHT22;3210;48.708;9.030;2023-03-14T05:59:58;8.10;99.90
6355;DHT22;3210;48.708;9.030;2023-03-14T06:02:25;8.10;99.90
6355;DHT22;3210;48.708;9.030;2023-03-14T06:04:52;8.00;99.90
6355;DHT22;3210;48.708;9.030;2023-03-14T06:07:19;8.00;99.90
6355;DHT22;3210;48.708;9.030;2023-03-14T06:09:45;8.00;99.90
6355;DHT22;3210;48.708;9.030;2023-03-14T06:12:14;8.20;99.90
6355;DHT22;3210;48.708;9.030;2023-03-14T06:14:40;8.20;99.90
6355;DHT22;3210;48.708;9.030;2023-03-14T06:17:07;8.10;99.90
6355;DHT22;3210;48.708;9.030;2023-03-14T06:19:34;8.00;99.90
6355;DHT22;3210;48.708;9.030;2023-03-14T06:22:01;8.00;99.90
6355;DHT22;3210;48.708;9.030;2023-03-14T06:24:27;8.20;99.90
6355;DHT22;3210;48.708;9.030;2023-03-14T06:26:54;8.10;99.90
6355;DHT22;3210;48.708;9.030;2023-03-14T06:29:22;8.10;99.90
6355;DHT22;3210;48.708;9.030;2023-03-14T06:31:49;8.20;99.90
6355;DHT22;3210;48.708;9.030;2023-03-14T06:34:16;8.20;99.90
6355;DHT22;3210;48.708;9.030;2023-03-14T06:36:42;8.20;99.90
6355;DHT22;3210;48.708;9.030;2023-03-14T06:39:09;8.20;99.90
6355;DHT22;3210;48.708;9.030;2023-03-14T06:41:36;8.20;99.90
6355;DHT22;3210;48.708;9.030;2023-03-14T06:44:03;8.20;99.90
6355;DHT22;3210;48.708;9.030;2023-03-14T06:46:31;8.30;99.90
6355;DHT22;3210;48.708;9.030;2023-03-14T06:48:57;8.40;99.90
6355;DHT22;3210;48.708;9.030;2023-03-14T06:51:24;8.40;99.90
6355;DHT22;3210;48.708;9.030;2023-03-14T06:53:51;8.50;99.90
6355;DHT22;3210;48.708;9.030;2023-03-14T06:56:18;8.50;99.90
6355;DHT22;3210;48.708;9.030;2023-03-14T06:58:44;8.50;99.90
6355;DHT22;3210;48.708;9.030;2023-03-14T07:01:20;8.70;99.90
6355;DHT22;3210;48.708;9.030;2023-03-14T07:03:48;8.60;99.90
6355;DHT22;3210;48.708;9.030;2023-03-14T07:06:15;8.70;99.90
6355;DHT22;3210;48.708;9.030;2023-03-14T07:08:42;8.70;99.90
6355;DHT22;3210;48.708;9.030;2023-03-14T07:11:09;8.80;99.90
6355;DHT22;3210;48.708;9.030;2023-03-14T07:13:36;8.90;99.90
6355;DHT22;3210;48.708;9.030;2023-03-14T07:16:03;8.90;99.90
6355;DHT22;3210;48.708;9.030;2023-03-14T07:18:30;9.00;99.90
6355;DHT22;3210;48.708;9.030;2023-03-14T07:20:58;9.00;99.90
6355;DHT22;3210;48.708;9.030;2023-03-14T07:23:25;9.00;99.90
6355;DHT22;3210;48.708;9.030;2023-03-14T07:25:52;9.10;99.90
6355;DHT22;3210;48.708;9.030;2023-03-14T07:28:19;9.30;99.90
6355;DHT22;3210;48.708;9.030;2023-03-14T07:30:46;9.40;99.90
6355;DHT22;3210;48.708;9.030;2023-03-14T07:33:13;9.50;99.90
6355;DHT22;3210;48.708;9.030;2023-03-14T07:35:40;9.60;99.90
6355;DHT22;3210;48.708;9.030;2023-03-14T07:38:08;9.70;99.90
6355;DHT22;3210;48.708;9.030;2023-03-14T07:40:35;9.70;99.90
6355;DHT22;3210;48.708;9.030;2023-03-14T07:43:02;9.70;99.90
6355;DHT22;3210;48.708;9.030;2023-03-14T07:45:28;9.80;99.90
6355;DHT22;3210;48.708;9.030;2023-03-14T07:47:55;10.00;99.90
6355;DHT22;3210;48.708;9.030;2023-03-14T07:50:23;10.10;98.70
6355;DHT22;3210;48.708;9.030;2023-03-14T07:52:50;10.30;97.10
6355;DHT22;3210;48.708;9.030;2023-03-14T07:55:18;10.30;93.10
6355;DHT22;3210;48.708;9.030;2023-03-14T07:57:45;10.30;91.20
6355;DHT22;3210;48.708;9.030;2023-03-14T08:00:13;10.40;91.30
6355;DHT22;3210;48.708;9.030;2023-03-14T08:02:40;10.50;91.20
6355;DHT22;3210;48.708;9.030;2023-03-14T08:05:07;10.70;88.20
6355;DHT22;3210;48.708;9.030;2023-03-14T08:07:34;10.70;79.40
6355;DHT22;3210;48.708;9.030;2023-03-14T08:10:01;10.80;80.50
6355;DHT22;3210;48.708;9.030;2023-03-14T08:12:29;10.80;79.00
6355;DHT22;3210;48.708;9.030;2023-03-14T08:14:56;10.90;70.80
6355;DHT22;3210;48.708;9.030;2023-03-14T08:17:25;10.90;61.70
6355;DHT22;3210;48.708;9.030;2023-03-14T08:19:51;10.80;56.80
6355;DHT22;3210;48.708;9.030;2023-03-14T08:22:18;10.70;55.00
6355;DHT22;3210;48.708;9.030;2023-03-14T08:24:45;10.90;57.40
6355;DHT22;3210;48.708;9.030;2023-03-14T08:27:11;11.10;57.20
6355;DHT22;3210;48.708;9.030;2023-03-14T08:29:41;11.30;43.30
6355;DHT22;3210;48.708;9.030;2023-03-14T08:32:08;11.40;37.50
6355;DHT22;3210;48.708;9.030;2023-03-14T08:34:34;11.40;30.00
6355;DHT22;3210;48.708;9.030;2023-03-14T08:37:01;11.40;48.70
6355;DHT22;3210;48.708;9.030;2023-03-14T08:39:28;11.30;30.80
6355;DHT22;3210;48.708;9.030;2023-03-14T08:41:55;11.30;30.20
6355;DHT22;3210;48.708;9.030;2023-03-14T08:44:22;11.20;26.30
6355;DHT22;3210;48.708;9.030;2023-03-14T08:46:50;10.90;26.70
6355;DHT22;3210;48.708;9.030;2023-03-14T08:49:16;10.80;27.20
6355;DHT22;3210;48.708;9.030;2023-03-14T08:51:43;10.70;27.60
6355;DHT22;3210;48.708;9.030;2023-03-14T08:54:10;10.70;31.50
6355;DHT22;3210;48.708;9.030;2023-03-14T08:56:37;10.70;32.90
6355;DHT22;3210;48.708;9.030;2023-03-14T08:59:04;10.90;36.50
6355;DHT22;3210;48.708;9.030;2023-03-14T09:01:31;10.90;37.40
6355;DHT22;3210;48.708;9.030;2023-03-14T09:03:59;11.00;47.10
6355;DHT22;3210;48.708;9.030;2023-03-14T09:06:26;10.90;48.30
6355;DHT22;3210;48.708;9.030;2023-03-14T09:08:53;10.70;46.70
6355;DHT22;3210;48.708;9.030;2023-03-14T09:11:20;10.50;47.70
6355;DHT22;3210;48.708;9.030;2023-03-14T09:13:46;10.60;47.50
6355;DHT22;3210;48.708;9.030;2023-03-14T09:16:14;10.60;49.90
6355;DHT22;3210;48.708;9.030;2023-03-14T09:18:41;10.70;54.80
6355;DHT22;3210;48.708;9.030;2023-03-14T09:21:09;10.80;50.20
6355;DHT22;3210;48.708;9.030;2023-03-14T09:23:36;10.80;46.50
6355;DHT22;3210;48.708;9.030;2023-03-14T09:26:03;10.90;46.80
6355;DHT22;3210;48.708;9.030;2023-03-14T09:28:29;10.90;39.10
6355;DHT22;3210;48.708;9.030;2023-03-14T09:30:56;11.00;40.10
6355;DHT22;3210;48.708;9.030;2023-03-14T09:33:23;10.90;39.30
6355;DHT22;3210;48.708;9.030;2023-03-14T09:35:50;10.90;35.30
6355;DHT22;3210;48.708;9.030;2023-03-14T09:38:18;10.80;34.20
6355;DHT22;3210;48.708;9.030;2023-03-14T09:40:47;10.80;58.30
6355;DHT22;3210;48.708;9.030;2023-03-14T09:43:15;10.80;40.40
6355;DHT22;3210;48.708;9.030;2023-03-14T09:45:43;10.90;31.60
6355;DHT22;3210;48.708;9.030;2023-03-14T09:48:15;11.00;48.10
6355;DHT22;3210;48.708;9.030;2023-03-14T09:50:44;11.00;34.30
6355;DHT22;3210;48.708;9.030;2023-03-14T09:53:15;10.90;36.90
6355;DHT22;3210;48.708;9.030;2023-03-14T09:55:45;11.00;35.30
6355;DHT22;3210;48.708;9.030;2023-03-14T09:58:16;10.90;34.40
6355;DHT22;3210;48.708;9.030;2023-03-14T10:00:43;10.90;37.10
6355;DHT22;3210;48.708;9.030;2023-03-14T10:03:22;11.20;34.10
6355;DHT22;3210;48.708;9.030;2023-03-14T10:05:50;11.30;37.90
6355;DHT22;3210;48.708;9.030;2023-03-14T10:08:17;11.50;34.70
6355;DHT22;3210;48.708;9.030;2023-03-14T10:10:46;11.80;50.90
6355;DHT22;3210;48.708;9.030;2023-03-14T10:13:16;12.10;26.30
6355;DHT22;3210;48.708;9.030;2023-03-14T10:15:48;12.20;26.70
6355;DHT22;3210;48.708;9.030;2023-03-14T10:18:15;12.30;19.10
6355;DHT22;3210;48.708;9.030;2023-03-14T10:20:44;12.30;18.50
6355;DHT22;3210;48.708;9.030;2023-03-14T10:23:26;12.30;20.10
6355;DHT22;3210;48.708;9.030;2023-03-14T10:26:08;12.30;14.80
6355;DHT22;3210;48.708;9.030;2023-03-14T10:28:41;12.00;14.00
6355;DHT22;3210;48.708;9.030;2023-03-14T10:31:09;11.90;15.60
6355;DHT22;3210;48.708;9.030;2023-03-14T10:33:37;11.90;13.30
6355;DHT22;3210;48.708;9.030;2023-03-14T10:36:17;11.90;14.20
6355;DHT22;3210;48.708;9.030;2023-03-14T10:38:45;11.90;10.20
6355;DHT22;3210;48.708;9.030;2023-03-14T10:41:20;11.70;11.90
6355;DHT22;3210;48.708;9.030;2023-03-14T10:43:51;11.60;11.70
6355;DHT22;3210;48.708;9.030;2023-03-14T10:46:20;11.70;15.40
6355;DHT22;3210;48.708;9.030;2023-03-14T10:48:47;11.60;28.20
6355;DHT22;3210;48.708;9.030;2023-03-14T10:51:19;11.40;22.00
6355;DHT22;3210;48.708;9.030;2023-03-14T10:53:49;11.30;23.20
6355;DHT22;3210;48.708;9.030;2023-03-14T10:56:21;11.20;25.50
6355;DHT22;3210;48.708;9.030;2023-03-14T10:58:50;11.10;33.40
6355;DHT22;3210;48.708;9.030;2023-03-14T11:01:32;11.00;32.50
6355;DHT22;3210;48.708;9.030;2023-03-14T11:04:09;10.90;25.90
6355;DHT22;3210;48.708;9.030;2023-03-14T11:06:43;10.90;25.60
6355;DHT22;3210;48.708;9.030;2023-03-14T11:09:15;10.80;22.10
6355;DHT22;3210;48.708;9.030;2023-03-14T11:11:47;10.70;28.70
6355;DHT22;3210;48.708;9.030;2023-03-14T11:14:23;10.60;30.80
6355;DHT22;3210;48.708;9.030;2023-03-14T11:16:59;10.60;26.60
6355;DHT22;3210;48.708;9.030;2023-03-14T11:19:47;10.50;35.80
6355;DHT22;3210;48.708;9.030;2023-03-14T11:22:21;10.40;34.50
6355;DHT22;3210;48.708;9.030;2023-03-14T11:25:06;10.40;41.60
6355;DHT22;3210;48.708;9.030;2023-03-14T11:27:41;10.40;44.50
6355;DHT22;3210;48.708;9.030;2023-03-14T11:30:22;10.40;55.00
6355;DHT22;3210;48.708;9.030;2023-03-14T11:32:57;10.40;54.50
6355;DHT22;3210;48.708;9.030;2023-03-14T11:35:29;10.30;61.20
6355;DHT22;3210;48.708;9.030;2023-03-14T11:38:05;10.20;64.30
6355;DHT22;3210;48.708;9.030;2023-03-14T11:40:37;10.30;67.10
6355;DHT22;3210;48.708;9.030;2023-03-14T11:43:12;10.30;76.70
6355;DHT22;3210;48.708;9.030;2023-03-14T11:45:42;10.30;94.00
6355;DHT22;3210;48.708;9.030;2023-03-14T11:48:17;10.50;86.40
6355;DHT22;3210;48.708;9.030;2023-03-14T11:50:48;10.40;70.90
6355;DHT22;3210;48.708;9.030;2023-03-14T11:53:21;10.40;73.60
6355;DHT22;3210;48.708;9.030;2023-03-14T11:55:49;10.40;65.70
6355;DHT22;3210;48.708;9.030;2023-03-14T11:58:22;10.40;70.30
6355;DHT22;3210;48.708;9.030;2023-03-14T12:00:51;10.40;76.70
6355;DHT22;3210;48.708;9.030;2023-03-14T12:03:26;10.30;76.20
6355;DHT22;3210;48.708;9.030;2023-03-14T12:06:02;10.30;78.10
6355;DHT22;3210;48.708;9.030;2023-03-14T12:08:44;10.00;92.30
6355;DHT22;3210;48.708;9.030;2023-03-14T12:11:18;10.00;92.00
6355;DHT22;3210;48.708;9.030;2023-03-14T12:13:49;9.90;91.20
6355;DHT22;3210;48.708;9.030;2023-03-14T12:16:38;9.80;99.00
6355;DHT22;3210;48.708;9.030;2023-03-14T12:19:26;10.00;94.00
6355;DHT22;3210;48.708;9.030;2023-03-14T12:21:57;10.10;80.20
6355;DHT22;3210;48.708;9.030;2023-03-14T12:24:27;10.20;75.40
6355;DHT22;3210;48.708;9.030;2023-03-14T12:26:55;10.10;45.80
6355;DHT22;3210;48.708;9.030;2023-03-14T12:29:24;9.90;37.60
6355;DHT22;3210;48.708;9.030;2023-03-14T12:32:09;10.00;50.20
6355;DHT22;3210;48.708;9.030;2023-03-14T12:34:39;10.20;34.60
6355;DHT22;3210;48.708;9.030;2023-03-14T12:37:14;10.30;39.10
6355;DHT22;3210;48.708;9.030;2023-03-14T12:39:47;10.30;30.50
6355;DHT22;3210;48.708;9.030;2023-03-14T12:42:21;10.20;26.40
6355;DHT22;3210;48.708;9.030;2023-03-14T12:44:51;9.80;22.90
6355;DHT22;3210;48.708;9.030;2023-03-14T12:47:48;9.60;40.40
6355;DHT22;3210;48.708;9.030;2023-03-14T12:50:25;9.50;9.40
6355;DHT22;3210;48.708;9.030;2023-03-14T12:53:18;9.30;1.00
6355;DHT22;3210;48.708;9.030;2023-03-14T12:55:50;9.10;1.00
6355;DHT22;3210;48.708;9.030;2023-03-14T12:58:26;9.20;1.00
6355;DHT22;3210;48.708;9.030;2023-03-14T13:01:00;9.40;1.00
6355;DHT22;3210;48.708;9.030;2023-03-14T13:03:39;9.50;1.00
6355;DHT22;3210;48.708;9.030;2023-03-14T13:06:09;9.40;1.00
6355;DHT22;3210;48.708;9.030;2023-03-14T13:08:39;9.40;1.00
6355;DHT22;3210;48.708;9.030;2023-03-14T13:11:09;9.30;1.00
6355;DHT22;3210;48.708;9.030;2023-03-14T13:13:42;9.30;1.00
6355;DHT22;3210;48.708;9.030;2023-03-14T13:16:15;9.30;1.00
6355;DHT22;3210;48.708;9.030;2023-03-14T13:18:44;9.00;1.00
6355;DHT22;3210;48.708;9.030;2023-03-14T13:21:15;9.00;1.00
6355;DHT22;3210;48.708;9.030;2023-03-14T13:23:55;9.00;1.00
6355;DHT22;3210;48.708;9.030;2023-03-14T13:26:24;9.00;1.00
6355;DHT22;3210;48.708;9.030;2023-03-14T13:28:51;9.00;1.00
6355;DHT22;3210;48.708;9.030;2023-03-14T13:31:22;9.00;1.00
6355;DHT22;3210;48.708;9.030;2023-03-14T13:34:00;9.00;1.00
6355;DHT22;3210;48.708;9.030;2023-03-14T13:36:27;8.90;1.00
6355;DHT22;3210;48.708;9.030;2023-03-14T13:38:58;8.90;1.00
6355;DHT22;3210;48.708;9.030;2023-03-14T13:41:27;8.70;1.00
6355;DHT22;3210;48.708;9.030;2023-03-14T13:44:01;8.50;1.00
6355;DHT22;3210;48.708;9.030;2023-03-14T13:46:30;8.60;1.00
6355;DHT22;3210;48.708;9.030;2023-03-14T13:49:02;8.60;1.00
6355;DHT22;3210;48.708;9.030;2023-03-14T13:51:30;8.70;1.00
6355;DHT22;3210;48.708;9.030;2023-03-14T13:53:59;8.60;1.00
6355;DHT22;3210;48.708;9.030;2023-03-14T13:56:30;8.80;1.00
6355;DHT22;3210;48.708;9.030;2023-03-14T13:58:57;8.80;1.00
6355;DHT22;3210;48.708;9.030;2023-03-14T14:01:25;8.90;1.00
6355;DHT22;3210;48.708;9.030;2023-03-14T14:03:55;8.90;1.00
6355;DHT22;3210;48.708;9.030;2023-03-14T14:06:28;8.70;1.00
6355;DHT22;3210;48.708;9.030;2023-03-14T14:08:57;8.50;1.00
6355;DHT22;3210;48.708;9.030;2023-03-14T14:11:36;8.50;1.00
6355;DHT22;3210;48.708;9.030;2023-03-14T14:14:05;8.40;1.00
6355;DHT22;3210;48.708;9.030;2023-03-14T14:16:32;8.40;1.00
6355;DHT22;3210;48.708;9.030;2023-03-14T14:19:01;8.30;1.00
6355;DHT22;3210;48.708;9.030;2023-03-14T14:21:28;8.20;1.00
6355;DHT22;3210;48.708;9.030;2023-03-14T14:23:57;8.10;1.00
6355;DHT22;3210;48.708;9.030;2023-03-14T14:26:26;8.10;1.00
6355;DHT22;3210;48.708;9.030;2023-03-14T14:29:01;8.20;1.00
6355;DHT22;3210;48.708;9.030;2023-03-14T14:31:28;8.20;1.00
6355;DHT22;3210;48.708;9.030;2023-03-14T14:33:56;8.20;1.00
6355;DHT22;3210;48.708;9.030;2023-03-14T14:36:27;8.10;1.00
6355;DHT22;3210;48.708;9.030;2023-03-14T14:38:58;8.20;1.00
6355;DHT22;3210;48.708;9.030;2023-03-14T14:41:30;8.10;1.00
6355;DHT22;3210;48.708;9.030;2023-03-14T14:43:58;8.20;1.00
6355;DHT22;3210;48.708;9.030;2023-03-14T14:46:28;8.20;1.00
6355;DHT22;3210;48.708;9.030;2023-03-14T14:48:56;8.30;1.00
6355;DHT22;3210;48.708;9.030;2023-03-14T14:51:26;8.20;1.00
6355;DHT22;3210;48.708;9.030;2023-03-14T14:54:04;8.10;1.00
6355;DHT22;3210;48.708;9.030;2023-03-14T14:56:35;8.10;1.00
6355;DHT22;3210;48.708;9.030;2023-03-14T14:59:05;8.10;1.00
6355;DHT22;3210;48.708;9.030;2023-03-14T15:01:34;8.20;1.00
6355;DHT22;3210;48.708;9.030;2023-03-14T15:04:04;8.30;1.00
6355;DHT22;3210;48.708;9.030;2023-03-14T15:06:37;8.40;1.00
6355;DHT22;3210;48.708;9.030;2023-03-14T15:09:04;8.40;1.00
6355;DHT22;3210;48.708;9.030;2023-03-14T15:11:32;8.80;1.00
6355;DHT22;3210;48.708;9.030;2023-03-14T15:13:58;8.80;1.00
6355;DHT22;3210;48.708;9.030;2023-03-14T15:16:28;8.80;1.00
6355;DHT22;3210;48.708;9.030;2023-03-14T15:18:57;8.80;1.00
6355;DHT22;3210;48.708;9.030;2023-03-14T15:21:25;8.90;1.00
6355;DHT22;3210;48.708;9.030;2023-03-14T15:23:54;8.90;1.00
6355;DHT22;3210;48.708;9.030;2023-03-14T15:26:24;8.90;1.00
6355;DHT22;3210;48.708;9.030;2023-03-14T15:28:51;8.80;1.00
6355;DHT22;3210;48.708;9.030;2023-03-14T15:31:19;8.60;1.00
6355;DHT22;3210;48.708;9.030;2023-03-14T15:33:47;8.60;1.00
6355;DHT22;3210;48.708;9.030;2023-03-14T15:36:21;8.40;1.00
6355;DHT22;3210;48.708;9.030;2023-03-14T15:38:49;8.40;1.00
6355;DHT22;3210;48.708;9.030;2023-03-14T15:41:18;8.30;1.00
6355;DHT22;3210;48.708;9.030;2023-03-14T15:43:45;8.20;1.00
6355;DHT22;3210;48.708;9.030;2023-03-14T15:46:13;8.10;1.00
6355;DHT22;3210;48.708;9.030;2023-03-14T15:48:40;8.10;1.00
6355;DHT22;3210;48.708;9.030;2023-03-14T15:51:09;8.10;1.00
6355;DHT22;3210;48.708;9.030;2023-03-14T15:53:36;8.00;1.00
6355;DHT22;3210;48.708;9.030;2023-03-14T15:56:04;7.90;1.00
6355;DHT22;3210;48.708;9.030;2023-03-14T15:58:32;7.80;1.00
6355;DHT22;3210;48.708;9.030;2023-03-14T16:01:00;7.80;1.00
6355;DHT22;3210;48.708;9.030;2023-03-14T16:03:27;7.70;1.00
6355;DHT22;3210;48.708;9.030;2023-03-14T16:05:54;7.60;1.00
6355;DHT22;3210;48.708;9.030;2023-03-14T16:08:21;7.60;1.00
6355;DHT22;3210;48.708;9.030;2023-03-14T16:10:48;7.70;1.00
6355;DHT22;3210;48.708;9.030;2023-03-14T16:13:15;7.70;1.00
6355;DHT22;3210;48.708;9.030;2023-03-14T16:15:52;7.70;1.00
6355;DHT22;3210;48.708;9.030;2023-03-14T16:18:19;7.70;1.00
6355;DHT22;3210;48.708;9.030;2023-03-14T16:20:54;7.70;1.00
6355;DHT22;3210;48.708;9.030;2023-03-14T16:23:22;7.80;1.00
6355;DHT22;3210;48.708;9.030;2023-03-14T16:25:49;7.70;1.00
6355;DHT22;3210;48.708;9.030;2023-03-14T16:28:16;7.70;1.00
6355;DHT22;3210;48.708;9.030;2023-03-14T16:30:44;7.70;1.00
6355;DHT22;3210;48.708;9.030;2023-03-14T16:33:12;7.60;1.00